• Join FlightAware (Why Join?)
  • Login
  • US Flag 
12:35PM EDT


 

Airport Tracker/Info


-or-


 

Live Flight TrackerFlight Track Log ✈ N464SR ✈ 07-May-2013 ✈ KOSH - KMIC

Flight Track Log - Related Links

Times and Time Zones

All times are in EDT time to prevent confusion due to time zone crossing. See the N464SR flight status page for this flight to view local times or setup timezone preferences in your user account.

Time Position Orientation Groundspeed Altitude Reporting Facility
EDT Latitude Longitude Course Direction KTS MPH feet Rate Location/Type
05:19PM 44.0000 -88.5500 309° West 70 81 1,500  Level KMKE
05:20PM 44.0167 -88.5667 324° Northwest 121 139 2,200 900 Climbing KMKE
05:21PM 44.0197 -88.5956 278° West 113 130 2,900 840 Climbing Minneapolis Center
05:22PM 44.0292 -88.6419 286° West 121 139 3,800 840 Climbing Minneapolis Center
05:23PM 44.0514 -88.6792 310° West 125 144 4,700 840 Climbing Minneapolis Center
05:24PM 44.0772 -88.7122 317° Northwest 125 144 5,600 600 Climbing Minneapolis Center
05:25PM 44.1480 -88.8381 309° West  Level FlightAware Approximate
05:25PM 44.1069 -88.7564 313° West 129 148 6,000  Level Minneapolis Center
05:26PM 44.1356 -88.8058 309° West 146 168 6,000 360 Level Minneapolis Center
05:27PM 44.1644 -88.8581 308° West 161 185 6,800 720 Climbing Minneapolis Center
05:28PM 44.1864 -88.8975 308° West 147 169 7,600 540 Climbing Minneapolis Center
05:29PM 44.2086 -88.9353 309° West 133 153 8,000 240 Climbing Minneapolis Center
05:30PM 44.2394 -88.9914 308° West 144 166 8,100  Climbing Minneapolis Center
05:31PM 44.2669 -89.0464 305° West 159 183 8,100  Level Minneapolis Center
05:32PM 44.2978 -89.1050 306° West 171 197 8,100 -60 Level Minneapolis Center
05:33PM 44.3281 -89.1586 308° West 168 193 8,000 -60 Descending Minneapolis Center
05:34PM 44.3600 -89.2106 311° West 168 193 8,000  Level Minneapolis Center
05:35PM 44.3875 -89.2567 310° West 163 188 8,000 60 Level Minneapolis Center
05:36PM 44.4142 -89.3156 302° West 171 197 8,200  Climbing Minneapolis Center
05:37PM 44.4300 -89.3797 289° West 168 193 8,000 -120 Descending Minneapolis Center
05:38PM 44.4461 -89.4439 289° West 166 191 8,000 -180 Level Minneapolis Center
05:39PM 44.4611 -89.5083 288° West 169 194 7,700 -360 Descending Minneapolis Center
05:40PM 44.4747 -89.5756 286° West 172 198 7,300 -420 Descending Minneapolis Center
05:41PM 44.4886 -89.6408 287° West 169 194 6,900 -420 Descending Minneapolis Center
05:42PM 44.5031 -89.7067 287° West 170 196 6,500 -420 Descending Minneapolis Center
05:44PM 44.5169 -89.7697 287° West 164 189 6,000 -240 Descending Minneapolis Center
05:45PM 44.5344 -89.8406 289° West 161 185 6,000  Level Minneapolis Center
05:46PM 44.5486 -89.9036 288° West 162 186 6,000  Level Minneapolis Center
05:47PM 44.5625 -89.9694 287° West 169 194 6,100  Climbing Minneapolis Center
05:48PM 44.5781 -90.0344 289° West 169 194 6,000 -60 Descending Minneapolis Center
05:49PM 44.5908 -90.0906 288° West 159 183 6,000  Level Minneapolis Center
05:50PM 44.6061 -90.1528 289° West 162 186 6,100  Climbing Minneapolis Center
05:51PM 44.6192 -90.2133 287° West 157 181 6,000  Descending Minneapolis Center
05:52PM 44.6333 -90.2728 289° West 155 178 6,200  Climbing Minneapolis Center
05:53PM 44.6444 -90.3336 284° West 155 178 6,100 -120 Descending Minneapolis Center
05:54PM 44.6583 -90.3975 287° West 161 185 6,000  Descending Minneapolis Center
05:55PM 44.6706 -90.4619 285° West 163 188 6,100  Climbing Minneapolis Center
05:56PM 44.6839 -90.5197 288° West 162 186 6,000 -60 Descending Minneapolis Center
05:57PM 44.7011 -90.5989 287° West 164 189 6,000  Level Minneapolis Center
05:58PM 44.7117 -90.6464 287° West 161 185 6,000  Level Minneapolis Center
05:59PM 44.7275 -90.7233 286° West 160 184 6,000 -60 Level Minneapolis Center
06:00PM 44.7431 -90.7844 290° West 160 184 5,900 -60 Descending Minneapolis Center
06:01PM 44.7564 -90.8436 288° West 164 189 5,900  Level Minneapolis Center
06:02PM 44.7697 -90.9072 286° West 163 188 5,900  Level Minneapolis Center
06:04PM 44.7806 -90.9719 283° West 163 188 6,000  Climbing Minneapolis Center
06:05PM 44.7939 -91.0358 286° West 163 188 5,900 -60 Descending Minneapolis Center
06:06PM 44.8072 -91.0992 287° West 164 189 5,900  Level Minneapolis Center
06:07PM 44.8250 -91.1744 288° West 168 193 5,900  Level Minneapolis Center
06:08PM 44.8403 -91.2381 289° West 164 189 6,000  Climbing Minneapolis Center
06:09PM 44.8561 -91.2975 291° West 157 181 5,900 -60 Descending Minneapolis Center
06:10PM 44.8714 -91.3583 290° West 157 181 5,900  Level Minneapolis Center
06:11PM 44.8892 -91.4314 289° West 163 188 5,900  Level Minneapolis Center
06:12PM 44.9050 -91.5097 286° West 161 185 5,900  Level Minneapolis Center
06:13PM 44.9200 -91.5722 289° West 162 186 5,900  Level Minneapolis Center
06:15PM 44.9375 -91.6347 292° West 165 190 5,900  Level Minneapolis Center
06:16PM 44.9561 -91.6917 295° West 163 188 6,000  Climbing Minneapolis Center
06:17PM 44.9708 -91.7506 289° West 161 185 5,900 -60 Descending Minneapolis Center
06:18PM 44.9842 -91.8106 287° West 162 186 5,900  Level Minneapolis Center
06:19PM 45.0008 -91.8711 291° West 166 191 6,000  Climbing Minneapolis Center
06:20PM 45.0181 -91.9300 292° West 164 189 6,000 -60 Level Minneapolis Center
06:21PM 45.0364 -92.0017 290° West 162 186 5,900 -180 Descending Minneapolis Center
06:22PM 45.0514 -92.0597 290° West 160 184 5,700 -360 Descending Minneapolis Center
06:23PM 45.0656 -92.1217 288° West 163 188 5,200 -540 Descending Minneapolis Center
06:24PM 45.0803 -92.1803 290° West 159 183 4,700 -540 Descending Minneapolis Center
06:25PM 45.0914 -92.2408 285° West 160 184 4,200 -300 Descending Minneapolis Center
06:26PM 45.1092 -92.3078 291° West 153 176 4,100 -120 Descending Minneapolis Center
06:27PM 45.1239 -92.3642 290° West 155 178 4,000 -120 Descending Minneapolis Center
06:28PM 45.1272 -92.4239 275° West 155 178 3,900  Descending Minneapolis Center
06:29PM 45.1236 -92.4850 265° West 156 180 4,000  Climbing Minneapolis Center
06:30PM 45.1256 -92.5428 273° West 148 170 3,900  Descending Minneapolis Center
06:31PM 45.1289 -92.5911 276° West 154 177 4,000  Climbing Minneapolis Center
06:32PM 45.1297 -92.6764 271° West 157 181 3,900 -60 Descending Minneapolis Center
06:33PM 45.1311 -92.7478 272° West 152 175 3,900 60 Level Minneapolis Center
06:34PM 45.1319 -92.8069 271° West 151 174 4,100  Climbing Minneapolis Center
06:35PM 45.1342 -92.8672 273° West 153 176 3,900  Descending Minneapolis Center
06:36PM 45.1289 -92.9253 263° West 153 176 4,100  Climbing Minneapolis Center
06:37PM 45.1117 -92.9914 250° West 150 173 4,000 -120 Descending Minneapolis Center
06:39PM 45.1011 -93.0464 255° West 147 169 3,900 -300 Descending Minneapolis Center
06:40PM 45.0978 -93.1047 265° West 150 173 3,400 -540 Descending Minneapolis Center
06:41PM 45.0883 -93.1619 257° West 150 173 2,800 -540 Descending Minneapolis Center
06:42PM 45.0797 -93.2200 258° West 151 174 2,400 -540 Descending Minneapolis Center
06:43PM 45.0808 -93.2864 271° West 141 162 1,800 -420 Descending Minneapolis Center
06:44PM 45.0828 -93.3356 273° West 129 148 1,600 -360 Descending Minneapolis Center
06:45PM 45.0769 -93.3683 256° West 99 114 1,100 -540 Descending Minneapolis Center
06:47PM 45.0620 -93.3539 180° South  Level Estimated